Time;durP1;ratioP1;P1;durP2;ratioP2;P2;SDS_P1;SDS_P2;PMS_P1;PMS_P2;Temp;Humidity;BMP_temperature;BMP_pressure;BME280_temperature;BME280_humidity;BME280_pressure;Samples;Min_cycle;Max_cycle;Signal;HPM_P1;HPM_P2
2023/06/07 00:02:20;;;;;;;11.02;5.90;;;10.90;99.90;;;;;;6210856;23;20023;-40
2023/06/07 00:04:45;;;;;;;14.40;7.13;;;10.90;99.90;;;;;;6210934;23;20013;-40
2023/06/07 00:07:12;;;;;;;12.77;6.25;;;10.90;99.90;;;;;;6210837;23;20019;-40
2023/06/07 00:09:38;;;;;;;11.90;6.55;;;10.90;99.90;;;;;;6183895;23;20453;-39
2023/06/07 00:12:07;;;;;;;13.50;6.25;;;10.80;99.90;;;;;;6184099;23;20020;-39
2023/06/07 00:14:33;;;;;;;15.18;6.93;;;10.80;99.90;;;;;;6210583;23;20024;-40
2023/06/07 00:16:59;;;;;;;15.82;6.55;;;10.80;99.90;;;;;;6183880;23;20035;-39
2023/06/07 00:19:25;;;;;;;14.13;6.70;;;10.80;99.90;;;;;;6210531;23;20027;-39
2023/06/07 00:21:54;;;;;;;13.90;6.75;;;10.80;99.90;;;;;;6210707;23;20009;-39
2023/06/07 00:24:20;;;;;;;14.10;6.82;;;10.80;99.90;;;;;;6184372;23;20027;-41
2023/06/07 00:26:46;;;;;;;11.63;6.90;;;10.70;99.90;;;;;;6183663;23;20016;-39
2023/06/07 00:29:13;;;;;;;11.52;6.10;;;10.70;99.90;;;;;;6185485;23;20013;-39
2023/06/07 00:31:39;;;;;;;10.35;6.03;;;10.70;99.90;;;;;;6212911;23;20020;-41
2023/06/07 00:34:05;;;;;;;14.57;6.35;;;10.70;99.90;;;;;;6215109;23;20095;-39
2023/06/07 00:36:30;;;;;;;12.90;6.25;;;10.70;99.90;;;;;;6215483;23;20289;-40
2023/06/07 00:38:56;;;;;;;13.60;6.65;;;10.70;99.90;;;;;;6215110;23;20023;-39
2023/06/07 00:41:22;;;;;;;14.82;6.75;;;10.70;99.90;;;;;;6188468;23;20340;-42
2023/06/07 00:43:48;;;;;;;15.32;6.63;;;10.60;99.90;;;;;;6187492;23;20016;-40
2023/06/07 00:46:19;;;;;;;12.07;6.60;;;10.60;99.90;;;;;;6214913;23;20094;-39
2023/06/07 00:48:45;;;;;;;14.38;6.90;;;10.60;99.90;;;;;;6214614;23;20015;-40
2023/06/07 00:51:11;;;;;;;15.55;6.78;;;10.60;99.90;;;;;;6187589;23;20063;-40
2023/06/07 00:53:38;;;;;;;14.63;7.18;;;10.60;99.90;;;;;;6187469;23;20024;-39
2023/06/07 00:56:05;;;;;;;17.80;7.20;;;10.60;99.90;;;;;;6214695;23;20009;-40
2023/06/07 00:58:35;;;;;;;18.02;8.00;;;10.60;99.90;;;;;;6214203;23;20016;-41
2023/06/07 01:01:01;;;;;;;17.30;8.05;;;10.60;99.90;;;;;;6184016;23;20028;-39
2023/06/07 01:03:29;;;;;;;15.95;7.20;;;10.50;99.90;;;;;;6206457;23;20013;-39
2023/06/07 01:05:54;;;;;;;14.98;7.15;;;10.50;99.90;;;;;;6209743;23;20020;-40
2023/06/07 01:08:21;;;;;;;12.63;7.35;;;10.50;99.90;;;;;;6210163;23;20497;-40
2023/06/07 01:10:48;;;;;;;11.00;7.25;;;10.50;99.90;;;;;;6209967;23;20016;-41
2023/06/07 01:13:16;;;;;;;14.27;7.83;;;10.50;99.90;;;;;;6211564;23;20020;-39
2023/06/07 01:15:42;;;;;;;17.63;7.90;;;10.50;99.90;;;;;;6210888;23;20428;-39
2023/06/07 01:18:09;;;;;;;13.77;7.55;;;10.40;99.90;;;;;;6211788;23;20044;-39
2023/06/07 01:20:37;;;;;;;16.13;7.50;;;10.40;99.90;;;;;;6210365;23;20024;-40
2023/06/07 01:23:07;;;;;;;16.00;7.22;;;10.40;99.90;;;;;;6210215;23;20020;-40
2023/06/07 01:25:33;;;;;;;15.25;7.47;;;10.30;99.90;;;;;;6209730;23;20342;-39
2023/06/07 01:28:01;;;;;;;14.60;7.40;;;10.30;99.90;;;;;;6209696;23;20442;-41
2023/06/07 01:30:31;;;;;;;15.43;7.78;;;10.30;99.90;;;;;;6210940;23;20124;-39
2023/06/07 01:32:58;;;;;;;14.65;7.28;;;10.30;99.90;;;;;;6213634;23;20098;-39
2023/06/07 01:35:25;;;;;;;12.63;7.78;;;10.30;99.90;;;;;;6187306;23;20027;-40
2023/06/07 01:37:53;;;;;;;14.32;7.05;;;10.30;99.90;;;;;;6213678;23;20016;-41
2023/06/07 01:40:20;;;;;;;18.92;7.93;;;10.30;99.90;;;;;;6214048;23;20013;-39
2023/06/07 01:42:46;;;;;;;15.05;7.60;;;10.30;99.90;;;;;;6213694;23;20009;-40
2023/06/07 01:45:12;;;;;;;14.48;7.70;;;10.30;99.90;;;;;;6210261;23;20098;-43
2023/06/07 01:47:38;;;;;;;17.55;7.70;;;10.20;99.90;;;;;;6210125;23;20012;-39
2023/06/07 01:50:05;;;;;;;17.58;7.68;;;10.20;99.90;;;;;;6186039;23;20016;-40
2023/06/07 01:52:31;;;;;;;15.63;7.40;;;10.20;99.90;;;;;;6213013;23;20012;-40
2023/06/07 01:54:57;;;;;;;17.08;7.70;;;10.20;99.90;;;;;;6211970;23;20090;-39
2023/06/07 01:57:45;;;;;;;13.98;7.25;;;10.20;99.90;;;;;;6185281;23;20024;-39
2023/06/07 02:00:29;;;;;;;17.67;7.38;;;10.20;99.90;;;;;;6183824;23;20055;-40
2023/06/07 02:03:19;;;;;;;18.30;8.10;;;10.20;99.90;;;;;;6185329;23;20021;-39
2023/06/07 02:05:51;;;;;;;15.38;8.32;;;10.20;99.90;;;;;;6211985;23;20047;-41
2023/06/07 02:08:30;;;;;;;16.40;9.25;;;10.10;99.90;;;;;;6209897;23;20305;-39
2023/06/07 02:10:57;;;;;;;14.60;8.05;;;10.10;99.90;;;;;;6209441;23;20028;-40
2023/06/07 02:13:23;;;;;;;14.05;7.97;;;10.10;99.90;;;;;;6155748;23;20464;-39
2023/06/07 02:15:49;;;;;;;12.63;8.02;;;10.10;99.90;;;;;;6210221;23;20070;-39
2023/06/07 02:18:19;;;;;;;17.75;8.13;;;10.10;99.90;;;;;;6209843;23;20020;-39
2023/06/07 02:20:45;;;;;;;14.57;7.13;;;10.00;99.90;;;;;;6212287;23;20087;-40
2023/06/07 02:23:10;;;;;;;15.70;8.15;;;10.00;99.90;;;;;;6212459;23;20024;-40
2023/06/07 02:25:36;;;;;;;14.57;7.93;;;10.00;99.90;;;;;;6212881;23;20376;-40
2023/06/07 02:28:02;;;;;;;15.20;7.68;;;10.00;99.90;;;;;;6211264;23;20649;-40
2023/06/07 02:30:28;;;;;;;14.35;8.38;;;9.90;99.90;;;;;;6211491;23;20021;-39
2023/06/07 02:32:53;;;;;;;16.33;8.27;;;9.90;99.90;;;;;;6210718;23;20330;-39
2023/06/07 02:35:20;;;;;;;17.17;8.52;;;9.90;99.90;;;;;;6210975;23;20017;-39
2023/06/07 02:37:46;;;;;;;14.10;8.77;;;9.90;99.90;;;;;;6211127;23;20017;-39
2023/06/07 02:40:13;;;;;;;15.65;8.70;;;9.90;99.90;;;;;;6210663;23;20174;-39
2023/06/07 02:42:46;;;;;;;15.20;8.23;;;9.90;99.90;;;;;;6212173;23;20016;-41
2023/06/07 02:45:15;;;;;;;19.73;9.15;;;9.80;99.90;;;;;;6210855;23;20020;-41
2023/06/07 02:47:41;;;;;;;16.38;8.82;;;9.80;99.90;;;;;;6184045;23;20021;-40
2023/06/07 02:50:08;;;;;;;21.45;10.05;;;9.80;99.90;;;;;;6210652;23;20143;-42
2023/06/07 02:52:33;;;;;;;16.02;8.88;;;9.80;99.90;;;;;;6210709;23;20016;-40
2023/06/07 02:55:00;;;;;;;15.07;8.77;;;9.80;99.90;;;;;;6214990;23;20088;-39
2023/06/07 02:57:25;;;;;;;16.70;9.50;;;9.80;99.90;;;;;;6215075;23;20008;-40
2023/06/07 02:59:53;;;;;;;16.02;9.52;;;9.80;99.90;;;;;;6187924;23;20366;-40
2023/06/07 03:02:20;;;;;;;17.75;9.25;;;9.70;99.90;;;;;;6187441;23;20017;-42
2023/06/07 03:04:46;;;;;;;16.73;8.85;;;9.70;99.90;;;;;;6213640;23;20560;-41
2023/06/07 03:07:13;;;;;;;19.73;9.45;;;9.70;99.90;;;;;;6187525;23;20488;-42
2023/06/07 03:09:39;;;;;;;19.48;9.98;;;9.70;99.90;;;;;;6214299;23;20012;-40
2023/06/07 03:12:06;;;;;;;17.13;9.55;;;9.70;99.90;;;;;;6214407;23;20468;-40
2023/06/07 03:14:32;;;;;;;17.17;9.43;;;9.70;99.90;;;;;;6214399;23;20513;-40
2023/06/07 03:16:58;;;;;;;15.02;9.25;;;9.70;99.90;;;;;;6213026;23;20013;-40
2023/06/07 03:19:23;;;;;;;19.65;10.45;;;9.70;99.90;;;;;;6212945;23;20447;-40
2023/06/07 03:21:53;;;;;;;17.45;9.75;;;9.70;99.90;;;;;;6210981;23;20020;-44
2023/06/07 03:24:19;;;;;;;17.10;10.38;;;9.70;99.90;;;;;;6210588;23;20023;-42
2023/06/07 03:26:45;;;;;;;18.80;9.80;;;9.70;99.90;;;;;;6187457;23;20012;-39
2023/06/07 03:29:10;;;;;;;19.38;10.45;;;9.70;99.90;;;;;;6214274;23;20016;-41
2023/06/07 03:31:37;;;;;;;16.25;9.63;;;9.70;99.90;;;;;;6211017;23;20342;-40
2023/06/07 03:34:03;;;;;;;17.35;10.23;;;9.70;99.90;;;;;;6209832;23;20051;-39
2023/06/07 03:36:31;;;;;;;20.90;10.27;;;9.70;99.90;;;;;;6208758;23;20448;-41
2023/06/07 03:38:58;;;;;;;17.88;10.65;;;9.70;99.90;;;;;;6208609;23;20024;-40
2023/06/07 03:41:25;;;;;;;17.63;10.38;;;9.80;99.90;;;;;;6210182;23;20048;-40
2023/06/07 03:43:51;;;;;;;20.00;10.70;;;9.80;99.90;;;;;;6210197;23;20024;-40
2023/06/07 03:46:17;;;;;;;20.15;10.32;;;9.80;99.90;;;;;;6183618;23;20398;-40
2023/06/07 03:48:42;;;;;;;18.05;11.43;;;9.80;99.90;;;;;;6183090;23;20013;-40
2023/06/07 03:51:08;;;;;;;19.48;11.10;;;9.80;99.90;;;;;;6208399;23;20461;-40
2023/06/07 03:53:34;;;;;;;21.00;10.38;;;9.90;99.90;;;;;;6206957;23;20175;-40
2023/06/07 03:56:00;;;;;;;17.15;10.68;;;9.90;99.90;;;;;;6213725;23;20012;-40
2023/06/07 03:58:26;;;;;;;17.98;10.77;;;9.90;99.90;;;;;;6211214;23;20044;-42
2023/06/07 04:00:53;;;;;;;19.08;10.98;;;9.90;99.90;;;;;;6210672;23;20016;-39
2023/06/07 04:03:24;;;;;;;21.70;11.35;;;10.00;99.90;;;;;;6210354;23;20012;-40
2023/06/07 04:05:50;;;;;;;20.10;10.90;;;10.00;99.90;;;;;;6211874;23;20097;-39
2023/06/07 04:08:16;;;;;;;20.23;10.50;;;10.00;99.90;;;;;;6211166;23;20043;-39
2023/06/07 04:10:42;;;;;;;20.45;11.60;;;10.10;99.90;;;;;;6211590;23;20012;-41
2023/06/07 04:13:08;;;;;;;15.35;10.95;;;10.20;99.90;;;;;;6211305;23;20059;-40
2023/06/07 04:15:33;;;;;;;19.67;10.95;;;10.20;99.90;;;;;;6211082;23;20067;-39
2023/06/07 04:17:59;;;;;;;18.30;10.02;;;10.20;99.90;;;;;;6210627;23;20009;-39
2023/06/07 04:20:24;;;;;;;22.00;10.25;;;10.30;99.90;;;;;;6184952;23;20323;-39
2023/06/07 04:22:51;;;;;;;22.13;11.23;;;10.30;99.90;;;;;;6208706;23;20028;-39
2023/06/07 04:25:21;;;;;;;21.85;11.05;;;10.30;99.90;;;;;;6211422;23;20021;-40
2023/06/07 04:27:48;;;;;;;17.80;9.15;;;10.40;99.90;;;;;;6209122;23;20323;-40
2023/06/07 04:30:15;;;;;;;19.83;10.50;;;10.40;99.90;;;;;;6208888;23;20016;-40
2023/06/07 04:32:43;;;;;;;18.33;10.45;;;10.40;99.90;;;;;;6210312;23;20319;-41
2023/06/07 04:35:09;;;;;;;17.50;9.63;;;10.40;99.90;;;;;;6183719;23;20040;-39
2023/06/07 04:37:35;;;;;;;22.33;9.93;;;10.50;99.90;;;;;;6211132;23;20032;-42
2023/06/07 04:40:01;;;;;;;17.98;9.73;;;10.60;99.90;;;;;;6209143;23;20012;-39
2023/06/07 04:42:27;;;;;;;14.57;8.55;;;10.60;99.90;;;;;;6208703;23;20028;-40
2023/06/07 04:44:53;;;;;;;19.05;10.05;;;10.70;99.90;;;;;;6209272;23;20016;-39
2023/06/07 04:47:19;;;;;;;21.70;9.38;;;10.70;99.90;;;;;;6209716;23;20070;-39
2023/06/07 04:49:46;;;;;;;16.52;7.75;;;10.80;99.90;;;;;;6209054;23;20108;-39
2023/06/07 04:52:16;;;;;;;16.80;8.32;;;10.80;99.90;;;;;;6211926;23;20075;-39
2023/06/07 04:54:46;;;;;;;20.35;7.80;;;10.90;99.90;;;;;;6213034;23;20017;-39
2023/06/07 04:57:13;;;;;;;16.15;8.45;;;11.00;99.90;;;;;;6186020;23;20024;-39
2023/06/07 04:59:42;;;;;;;16.48;8.23;;;11.00;99.90;;;;;;6213996;23;20449;-40
2023/06/07 05:02:08;;;;;;;20.63;7.88;;;11.10;99.90;;;;;;6187399;23;20071;-41
2023/06/07 05:04:34;;;;;;;18.98;8.70;;;11.10;99.90;;;;;;6213840;23;20008;-39
2023/06/07 05:07:00;;;;;;;20.48;7.10;;;11.10;99.90;;;;;;6215219;23;20008;-39
2023/06/07 05:09:26;;;;;;;21.90;7.32;;;11.10;99.90;;;;;;6213577;23;20015;-40
2023/06/07 05:11:52;;;;;;;17.45;7.40;;;11.20;99.90;;;;;;6214131;23;20009;-39
2023/06/07 05:14:18;;;;;;;18.42;6.68;;;11.20;99.90;;;;;;6214082;23;20070;-39
2023/06/07 05:16:45;;;;;;;20.25;7.22;;;11.30;99.90;;;;;;6213765;23;20032;-39
2023/06/07 05:19:11;;;;;;;15.70;6.80;;;11.30;99.90;;;;;;6214202;23;20315;-40
2023/06/07 05:21:37;;;;;;;15.88;7.22;;;11.30;99.90;;;;;;6214101;23;20067;-39
2023/06/07 05:24:03;;;;;;;17.42;7.05;;;11.30;99.90;;;;;;6211657;23;20020;-40
2023/06/07 05:26:29;;;;;;;14.88;6.22;;;11.40;99.90;;;;;;6209824;23;20035;-39
2023/06/07 05:28:55;;;;;;;16.80;7.25;;;11.40;99.90;;;;;;6211786;23;20019;-40
2023/06/07 05:31:22;;;;;;;18.20;7.55;;;11.50;99.90;;;;;;6212853;23;20070;-42
2023/06/07 05:33:48;;;;;;;17.92;7.18;;;11.50;99.90;;;;;;6212485;23;20051;-40
2023/06/07 05:36:14;;;;;;;18.65;7.85;;;;;;;;;;6212580;23;20325;-41
2023/06/07 05:38:40;;;;;;;20.63;8.52;;;11.70;99.90;;;;;;6186008;23;20056;-41
2023/06/07 05:41:06;;;;;;;16.27;7.18;;;11.70;99.90;;;;;;6213122;23;20013;-41
2023/06/07 05:43:32;;;;;;;23.45;7.90;;;11.90;99.90;;;;;;6214428;23;20091;-41
2023/06/07 05:45:58;;;;;;;16.08;7.22;;;11.80;99.90;;;;;;6211955;23;20553;-41
2023/06/07 05:48:23;;;;;;;15.98;7.55;;;11.90;99.90;;;;;;6185949;23;20071;-41
2023/06/07 05:50:49;;;;;;;16.85;6.97;;;11.90;99.90;;;;;;6185923;23;20402;-41
2023/06/07 05:53:16;;;;;;;19.42;7.35;;;11.90;99.90;;;;;;6210309;23;20087;-41
2023/06/07 05:55:42;;;;;;;13.95;7.28;;;12.00;99.90;;;;;;6211346;23;20055;-42
2023/06/07 05:58:07;;;;;;;14.50;6.38;;;12.20;99.90;;;;;;6210107;23;20020;-41
2023/06/07 06:00:33;;;;;;;16.92;7.28;;;12.30;99.90;;;;;;6212225;23;20077;-41
2023/06/07 06:03:01;;;;;;;17.55;7.28;;;12.50;99.90;;;;;;6186139;23;20016;-44
2023/06/07 06:05:27;;;;;;;23.52;7.20;;;12.90;99.90;;;;;;6184783;23;20091;-41
2023/06/07 06:07:57;;;;;;;20.35;7.50;;;13.00;99.90;;;;;;6211689;23;20433;-43
2023/06/07 06:10:26;;;;;;;18.52;6.53;;;13.40;99.90;;;;;;6184656;23;20492;-43
2023/06/07 06:12:52;;;;;;;13.57;5.53;;;13.80;99.90;;;;;;6211510;23;20013;-43
2023/06/07 06:15:17;;;;;;;15.55;6.13;;;14.20;99.90;;;;;;6211912;23;20404;-40
2023/06/07 06:17:43;;;;;;;12.55;5.53;;;;;;;;;;6184775;23;20017;-40
2023/06/07 06:20:10;;;;;;;13.68;5.68;;;16.30;99.90;;;;;;6212557;23;20017;-40
2023/06/07 06:22:35;;;;;;;14.77;5.65;;;16.40;99.90;;;;;;6187223;23;20016;-40
2023/06/07 06:25:01;;;;;;;11.70;5.50;;;16.80;99.90;;;;;;6213956;23;20013;-41
2023/06/07 06:27:30;;;;;;;16.90;5.45;;;16.90;99.90;;;;;;6215188;23;20017;-40
2023/06/07 06:29:55;;;;;;;13.38;5.93;;;16.60;99.90;;;;;;6215230;23;20496;-41
2023/06/07 06:32:21;;;;;;;16.52;5.97;;;16.40;99.90;;;;;;6213105;23;20019;-40
2023/06/07 06:34:47;;;;;;;13.77;5.70;;;15.90;99.90;;;;;;6212804;23;20044;-42
2023/06/07 06:37:13;;;;;;;19.10;5.80;;;16.40;99.90;;;;;;6187839;23;20051;-40
2023/06/07 06:39:39;;;;;;;10.00;4.32;;;16.30;99.90;;;;;;6212433;23;20013;-41
2023/06/07 06:42:05;;;;;;;12.65;5.20;;;16.40;99.90;;;;;;6212543;23;20012;-42
2023/06/07 06:44:31;;;;;;;10.73;4.70;;;16.70;99.90;;;;;;6211133;23;20016;-41
2023/06/07 06:46:56;;;;;;;13.25;5.22;;;16.50;99.90;;;;;;6211456;23;20071;-42
2023/06/07 06:49:23;;;;;;;11.45;4.32;;;16.00;99.90;;;;;;6211465;23;20058;-41
2023/06/07 06:51:51;;;;;;;15.77;5.75;;;16.40;99.90;;;;;;6184506;23;20012;-41
2023/06/07 06:54:21;;;;;;;13.02;5.35;;;16.70;99.90;;;;;;6213769;23;20016;-40
2023/06/07 06:56:46;;;;;;;12.52;4.95;;;16.90;99.90;;;;;;6215185;23;20019;-41
2023/06/07 06:59:12;;;;;;;13.52;4.93;;;16.80;99.90;;;;;;6215295;23;20043;-41
2023/06/07 07:01:47;;;;;;;14.43;4.93;;;17.80;99.90;;;;;;6215347;23;20044;-40
2023/06/07 07:04:16;;;;;;;14.70;4.75;;;18.20;99.90;;;;;;6218439;23;20044;-40
2023/06/07 07:06:42;;;;;;;15.95;4.80;;;18.00;99.90;;;;;;6215621;23;20314;-40
2023/06/07 07:09:09;;;;;;;14.98;4.30;;;17.70;99.90;;;;;;6214690;23;20020;-40
2023/06/07 07:11:35;;;;;;;9.63;4.20;;;18.00;99.90;;;;;;6215040;23;20021;-40
2023/06/07 07:14:01;;;;;;;11.15;4.40;;;17.80;99.90;;;;;;6163753;23;20469;-42
2023/06/07 07:16:28;;;;;;;13.93;4.78;;;18.30;99.90;;;;;;6215380;23;20012;-42
2023/06/07 07:18:54;;;;;;;13.02;4.28;;;19.00;99.90;;;;;;6215260;23;20016;-41
2023/06/07 07:21:20;;;;;;;11.55;4.32;;;19.30;99.90;;;;;;6188442;23;20021;-40
2023/06/07 07:23:46;;;;;;;11.40;3.92;;;19.30;99.90;;;;;;6186615;23;20027;-42
2023/06/07 07:26:11;;;;;;;13.20;4.82;;;19.40;99.90;;;;;;6210668;23;20020;-40
2023/06/07 07:28:37;;;;;;;13.52;4.10;;;;;;;;;;6182184;23;20468;-43
2023/06/07 07:31:03;;;;;;;11.60;4.10;;;18.70;99.90;;;;;;6209489;23;20013;-43
2023/06/07 07:33:29;;;;;;;9.80;4.28;;;18.60;99.90;;;;;;6209894;23;20571;-42
2023/06/07 07:35:54;;;;;;;11.13;4.38;;;18.30;99.90;;;;;;6212493;23;20020;-41
2023/06/07 07:38:20;;;;;;;14.52;4.22;;;18.10;99.90;;;;;;6212688;23;20464;-44
2023/06/07 07:40:47;;;;;;;10.25;3.80;;;18.10;99.90;;;;;;6212048;23;20013;-43
2023/06/07 07:43:12;;;;;;;15.23;4.73;;;18.10;99.90;;;;;;6185978;23;20023;-42
2023/06/07 07:45:38;;;;;;;11.82;4.05;;;17.70;99.90;;;;;;6210355;23;20021;-42
2023/06/07 07:48:04;;;;;;;10.70;4.22;;;17.60;99.90;;;;;;6212185;23;20047;-42
2023/06/07 07:50:30;;;;;;;14.35;3.90;;;17.50;99.90;;;;;;6207518;23;20163;-41
2023/06/07 07:52:56;;;;;;;15.32;4.72;;;17.20;99.90;;;;;;6208588;23;20020;-42
2023/06/07 07:55:23;;;;;;;12.32;4.28;;;17.00;99.90;;;;;;6208977;23;20017;-41
2023/06/07 07:57:50;;;;;;;12.20;4.60;;;16.90;99.90;;;;;;6182105;23;20023;-45
2023/06/07 08:00:17;;;;;;;14.07;4.50;;;16.90;99.90;;;;;;6209573;23;20516;-42
2023/06/07 08:02:43;;;;;;;14.10;4.38;;;17.00;99.90;;;;;;6209242;23;20468;-42
2023/06/07 08:05:09;;;;;;;11.70;4.32;;;17.20;99.90;;;;;;6214985;23;20017;-41
2023/06/07 08:07:35;;;;;;;13.73;4.95;;;17.60;99.90;;;;;;6210476;23;20015;-42
2023/06/07 08:10:01;;;;;;;11.23;4.93;;;17.60;99.90;;;;;;6158108;23;20008;-41
2023/06/07 08:12:26;;;;;;;16.55;4.68;;;17.60;99.90;;;;;;6180562;23;20012;-43
2023/06/07 08:14:52;;;;;;;11.70;4.20;;;18.10;99.90;;;;;;6208808;23;20017;-41
2023/06/07 08:17:19;;;;;;;11.23;4.78;;;18.00;99.90;;;;;;6183441;23;20024;-42
2023/06/07 08:19:46;;;;;;;10.43;4.80;;;18.50;99.90;;;;;;6210688;23;20353;-43
2023/06/07 08:22:12;;;;;;;13.15;4.20;;;19.10;99.90;;;;;;6210165;23;20040;-41
2023/06/07 08:24:37;;;;;;;13.40;4.32;;;18.60;99.90;;;;;;6209882;23;20013;-42
2023/06/07 08:27:03;;;;;;;12.38;4.28;;;18.60;99.90;;;;;;6182711;23;20096;-41
2023/06/07 08:29:29;;;;;;;12.15;4.53;;;18.50;99.90;;;;;;6210283;23;20155;-41
2023/06/07 08:31:56;;;;;;;12.90;4.70;;;18.80;99.90;;;;;;6209190;23;20016;-41
2023/06/07 08:34:28;;;;;;;11.23;4.38;;;18.40;99.90;;;;;;6209918;23;20026;-42
2023/06/07 08:36:54;;;;;;;10.27;4.15;;;18.30;99.90;;;;;;6209181;23;20070;-44
2023/06/07 08:39:20;;;;;;;10.23;4.35;;;17.80;99.90;;;;;;6210119;23;20016;-41
2023/06/07 08:41:46;;;;;;;11.48;4.45;;;18.10;99.90;;;;;;6209456;23;20017;-42
2023/06/07 08:44:12;;;;;;;10.25;4.55;;;18.10;99.90;;;;;;6209054;23;20013;-41
2023/06/07 08:46:38;;;;;;;14.13;4.75;;;18.10;99.90;;;;;;6207602;23;20098;-41
2023/06/07 08:49:05;;;;;;;11.55;4.50;;;18.10;99.90;;;;;;6213988;23;20023;-42
2023/06/07 08:51:36;;;;;;;11.80;4.32;;;18.10;99.90;;;;;;6187400;23;20440;-41
2023/06/07 08:54:03;;;;;;;10.25;4.63;;;18.20;99.90;;;;;;6213681;23;20027;-41
2023/06/07 08:56:31;;;;;;;11.40;4.50;;;18.20;99.90;;;;;;6210469;23;20017;-41
2023/06/07 08:58:58;;;;;;;12.30;4.53;;;18.10;99.90;;;;;;6211251;23;20084;-42
2023/06/07 09:01:27;;;;;;;10.63;3.93;;;18.10;99.90;;;;;;6185490;23;20019;-42
2023/06/07 09:03:52;;;;;;;12.93;4.63;;;18.10;99.90;;;;;;6213051;23;20012;-41
2023/06/07 09:06:20;;;;;;;11.52;4.25;;;18.10;99.90;;;;;;6209720;23;20034;-44
2023/06/07 09:08:46;;;;;;;9.25;4.13;;;18.30;99.90;;;;;;6184865;23;20088;-43
2023/06/07 09:11:11;;;;;;;12.52;4.70;;;18.30;99.90;;;;;;6212128;23;20091;-43
2023/06/07 09:13:37;;;;;;;9.75;4.30;;;18.70;99.90;;;;;;6213104;23;20378;-41
2023/06/07 09:16:04;;;;;;;11.57;4.13;;;18.80;99.90;;;;;;6212243;23;20016;-44
2023/06/07 09:18:43;;;;;;;8.55;4.95;;;19.00;99.90;;;;;;6209134;23;20017;-41
2023/06/07 09:21:21;;;;;;;11.75;4.57;;;19.30;99.90;;;;;;6209555;23;20345;-41
2023/06/07 09:23:48;;;;;;;8.85;4.50;;;19.50;99.90;;;;;;6183545;23;20020;-42
2023/06/07 09:26:16;;;;;;;7.05;4.30;;;19.70;99.90;;;;;;6212219;23;20025;-45
2023/06/07 09:28:42;;;;;;;;;;;20.10;99.90;;;;;;6211317;23;20069;-43
2023/06/07 09:31:08;;;;;;;11.05;4.63;;;20.20;99.90;;;;;;6209375;23;19943;-41
2023/06/07 09:33:34;;;;;;;9.13;4.45;;;19.90;99.90;;;;;;6207781;23;20412;-47
2023/06/07 09:36:04;;;;;;;11.23;4.30;;;19.90;99.90;;;;;;6183366;23;20345;-41
2023/06/07 09:38:29;;;;;;;10.32;4.38;;;20.00;99.90;;;;;;6210278;23;20020;-43
2023/06/07 09:40:58;;;;;;;8.75;4.10;;;20.40;99.90;;;;;;6209319;23;20015;-41
2023/06/07 09:43:23;;;;;;;12.80;4.80;;;20.50;99.90;;;;;;6182566;23;20023;-43
2023/06/07 09:45:56;;;;;;;10.68;4.68;;;20.50;99.90;;;;;;6209694;23;20084;-42
2023/06/07 09:48:22;;;;;;;11.27;4.60;;;20.50;99.90;;;;;;6209971;23;20516;-42
2023/06/07 09:50:58;;;;;;;11.45;4.47;;;20.40;99.90;;;;;;6183522;23;20024;-42
2023/06/07 09:53:26;;;;;;;13.80;4.53;;;20.60;99.90;;;;;;6210749;23;20024;-41
2023/06/07 09:55:52;;;;;;;13.02;4.90;;;20.50;99.90;;;;;;6210630;23;20017;-42
2023/06/07 09:58:20;;;;;;;10.10;4.70;;;20.50;99.90;;;;;;6209455;23;20058;-41
2023/06/07 10:00:46;;;;;;;9.18;4.68;;;20.70;99.90;;;;;;6209902;23;20027;-41
2023/06/07 10:03:12;;;;;;;11.05;4.85;;;20.90;99.90;;;;;;6182861;23;20013;-41
2023/06/07 10:05:39;;;;;;;7.82;4.47;;;20.80;99.90;;;;;;6211001;23;20067;-42
2023/06/07 10:08:06;;;;;;;10.57;4.47;;;21.00;99.90;;;;;;6210256;23;20295;-41
2023/06/07 10:10:36;;;;;;;7.95;3.70;;;20.90;99.90;;;;;;6209197;23;20017;-42
2023/06/07 10:13:05;;;;;;;11.45;4.40;;;20.80;99.90;;;;;;6210348;23;20330;-41
2023/06/07 10:15:33;;;;;;;10.88;4.90;;;20.80;99.90;;;;;;6211116;23;20100;-42
2023/06/07 10:18:05;;;;;;;10.00;3.92;;;20.90;99.90;;;;;;6210974;23;20124;-39
2023/06/07 10:20:36;;;;;;;11.23;4.60;;;21.00;99.90;;;;;;6211724;23;20044;-39
2023/06/07 10:23:08;;;;;;;9.75;4.22;;;21.30;99.90;;;;;;6183920;23;20056;-40
2023/06/07 10:25:41;;;;;;;14.85;4.47;;;21.60;99.90;;;;;;6212386;23;20013;-39
2023/06/07 10:28:15;;;;;;;9.50;4.40;;;;;;;;;;6212143;23;20017;-40
2023/06/07 10:30:52;;;;;;;12.55;4.68;;;21.70;99.90;;;;;;6212856;23;20021;-40
2023/06/07 10:33:19;;;;;;;8.93;4.40;;;21.90;99.90;;;;;;6186853;23;20436;-39
2023/06/07 10:35:45;;;;;;;11.45;4.20;;;21.70;99.90;;;;;;6214080;23;20063;-41
2023/06/07 10:38:12;;;;;;;10.97;4.30;;;21.80;99.90;;;;;;6214746;23;20012;-40
2023/06/07 10:40:38;;;;;;;12.67;4.50;;;21.90;99.90;;;;;;6212610;23;20232;-42
2023/06/07 10:43:04;;;;;;;8.90;4.57;;;21.90;99.90;;;;;;6185003;23;20235;-41
2023/06/07 10:45:30;;;;;;;11.52;5.05;;;21.90;99.90;;;;;;6183608;23;20108;-42
2023/06/07 10:47:56;;;;;;;13.95;5.57;;;21.50;99.90;;;;;;6211102;23;20028;-40
2023/06/07 10:50:28;;;;;;;11.32;4.35;;;21.60;99.90;;;;;;6159838;23;20062;-41
2023/06/07 10:52:55;;;;;;;9.60;3.92;;;22.00;99.90;;;;;;6212214;23;20508;-40
2023/06/07 10:55:27;;;;;;;;;;;22.00;99.90;;;;;;6211522;23;20461;-40
2023/06/07 10:57:53;;;;;;;10.68;4.57;;;22.20;99.90;;;;;;6211734;23;19916;-40
2023/06/07 11:00:28;;;;;;;9.13;4.57;;;22.30;99.90;;;;;;6211600;23;20020;-41
2023/06/07 11:03:16;;;;;;;13.68;4.40;;;22.00;99.90;;;;;;6211949;23;20350;-43
2023/06/07 11:05:53;;;;;;;10.13;4.60;;;22.40;99.90;;;;;;6184802;23;20371;-42
2023/06/07 11:08:27;;;;;;;7.75;4.30;;;22.40;99.90;;;;;;6185078;23;20028;-40
2023/06/07 11:10:59;;;;;;;9.70;4.30;;;22.40;99.90;;;;;;6213195;23;20009;-41
2023/06/07 11:13:43;;;;;;;11.88;4.90;;;22.40;99.90;;;;;;6213870;23;20084;-40
2023/06/07 11:16:24;;;;;;;9.48;4.50;;;22.70;99.90;;;;;;6211327;23;20348;-42
2023/06/07 11:19:00;;;;;;;10.60;4.32;;;23.20;99.90;;;;;;6211140;23;20032;-40
2023/06/07 11:21:29;;;;;;;8.10;4.55;;;23.40;99.90;;;;;;6210396;23;20475;-41
2023/06/07 11:24:11;;;;;;;9.57;4.10;;;23.20;99.90;;;;;;6184022;23;20298;-41
2023/06/07 11:26:37;;;;;;;6.80;4.35;;;23.30;99.90;;;;;;6211450;23;20067;-41
2023/06/07 11:29:05;;;;;;;9.50;4.43;;;23.40;99.90;;;;;;6208910;23;20017;-41
2023/06/07 11:31:31;;;;;;;6.72;3.78;;;23.50;99.90;;;;;;6212387;23;20083;-42
2023/06/07 11:33:57;;;;;;;8.07;4.05;;;23.30;99.90;;;;;;6212787;23;20074;-40
2023/06/07 11:36:23;;;;;;;9.15;4.75;;;23.50;99.90;;;;;;6214080;23;20380;-41
2023/06/07 11:38:49;;;;;;;8.80;3.92;;;23.30;99.90;;;;;;6186419;23;20012;-40
2023/06/07 11:41:15;;;;;;;9.98;4.35;;;23.60;99.90;;;;;;6213752;23;20017;-40
2023/06/07 11:43:41;;;;;;;9.70;4.18;;;23.60;99.90;;;;;;6213018;23;20016;-40
2023/06/07 11:46:06;;;;;;;10.77;4.30;;;23.40;99.90;;;;;;6214141;23;20091;-41
2023/06/07 11:48:32;;;;;;;10.05;4.20;;;23.50;99.90;;;;;;6214267;23;20024;-43
2023/06/07 11:51:01;;;;;;;8.77;4.10;;;23.60;99.90;;;;;;6187898;23;20074;-41
2023/06/07 11:53:30;;;;;;;7.82;4.10;;;23.50;99.90;;;;;;6214021;23;20028;-40
2023/06/07 11:55:59;;;;;;;10.30;4.22;;;23.60;99.90;;;;;;6214474;23;20019;-41
2023/06/07 11:58:25;;;;;;;7.07;3.60;;;23.80;99.90;;;;;;6213967;23;20008;-42
2023/06/07 12:00:52;;;;;;;7.38;3.92;;;24.10;99.90;;;;;;6215740;23;20332;-42
2023/06/07 12:03:21;;;;;;;9.63;4.40;;;24.00;99.90;;;;;;6164408;23;20075;-41
2023/06/07 12:05:47;;;;;;;6.80;3.78;;;24.00;99.90;;;;;;6210660;23;20016;-43
2023/06/07 12:08:16;;;;;;;7.77;4.17;;;24.00;99.90;;;;;;6210712;23;20051;-40
2023/06/07 12:10:45;;;;;;;9.90;4.47;;;24.10;99.90;;;;;;6213870;23;20016;-42
2023/06/07 12:13:15;;;;;;;7.53;3.78;;;24.10;99.90;;;;;;6212871;23;20427;-40
2023/06/07 12:15:53;;;;;;;9.32;3.70;;;23.90;99.90;;;;;;6213912;23;20017;-43
2023/06/07 12:18:20;;;;;;;7.90;3.83;;;23.90;99.90;;;;;;6213551;23;20017;-41
2023/06/07 12:20:47;;;;;;;6.03;3.90;;;24.00;99.90;;;;;;6213805;23;20345;-40
2023/06/07 12:23:14;;;;;;;;;;;24.10;99.90;;;;;;6213115;23;20454;-40
2023/06/07 12:25:43;;;;;;;7.30;3.50;;;23.80;99.90;;;;;;6214094;23;19973;-41
2023/06/07 12:28:11;;;;;;;7.88;3.97;;;24.20;99.90;;;;;;6214019;23;20044;-40
2023/06/07 12:30:40;;;;;;;9.98;3.95;;;24.00;99.90;;;;;;6214123;23;20066;-41
2023/06/07 12:33:13;;;;;;;7.97;3.30;;;24.30;99.90;;;;;;6214048;23;20039;-41
2023/06/07 12:35:39;;;;;;;6.70;3.63;;;24.60;99.90;;;;;;6213190;23;20016;-40
2023/06/07 12:38:06;;;;;;;10.40;3.40;;;24.30;99.90;;;;;;6186893;23;20017;-41
2023/06/07 12:40:32;;;;;;;8.90;4.03;;;24.40;99.90;;;;;;6214424;23;20095;-41
2023/06/07 12:42:58;;;;;;;8.05;3.95;;;24.60;99.90;;;;;;6213402;23;20386;-42